Weather at Self Field [CLOSED]

Public forecast

Using degrees Fahrenheit for public forecast. Weather courtesy of forecast.io.

Closest aviation weather report (METAR) to Self Field

Closest report is Shelby-Cleveland County Regional Airport, 3.6 nm (6.6 km) SSE.

2024/06/22 17:05 (retrieved 15 minutes ago)

KEHO 221705Z AUTO 13005KT 10SM SCT034 SCT045 BKN090 31/21 A3013 RMK AO2 T03050205

Closest aviation forecast (TAF) to Self Field

Closest forecast is Hickory Regional Airport, 28.2 nm (52.3 km) NNE.

2024/06/22 12:39 (retrieved 5 hours ago)

TAF KHKY 221136Z 2212/2312 VRB03KT P6SM SKC FM221800 19004KT P6SM FEW050 SCT070